Time;durP1;ratioP1;P1;durP2;ratioP2;P2;SDS_P1;SDS_P2;PMS_P1;PMS_P2;Temp;Humidity;BMP_temperature;BMP_pressure;BME280_temperature;BME280_humidity;BME280_pressure;Samples;Min_cycle;Max_cycle;Signal;HPM_P1;HPM_P2
2021/05/23 00:01:29;;;;;;;;;;;10.60;99.90;;;;;;5087570;28;20273;-71
2021/05/23 00:03:54;;;;;;;;;;;10.60;99.90;;;;;;5090982;28;19982;-70
2021/05/23 00:06:20;;;;;;;;;;;10.60;99.90;;;;;;5090453;28;19962;-71
2021/05/23 00:08:45;;;;;;;;;;;10.50;99.90;;;;;;5091286;28;19909;-71
2021/05/23 00:11:11;;;;;;;;;;;10.50;99.90;;;;;;5091265;28;19942;-71
2021/05/23 00:13:40;;;;;;;;;;;10.50;99.90;;;;;;5091104;28;19954;-70
2021/05/23 00:16:08;;;;;;;;;;;10.40;99.90;;;;;;5089001;28;19948;-71
2021/05/23 00:18:35;;;;;;;;;;;10.40;99.90;;;;;;5091063;28;19985;-71
2021/05/23 00:21:01;;;;;;;;;;;10.40;99.90;;;;;;5091070;28;19995;-70
2021/05/23 00:23:27;;;;;;;;;;;10.40;99.90;;;;;;5089691;28;19913;-71
2021/05/23 00:25:53;;;;;;;;;;;10.40;99.90;;;;;;5089963;28;20327;-69
2021/05/23 00:28:18;;;;;;;;;;;10.40;99.90;;;;;;5089577;28;19912;-71
2021/05/23 00:30:44;;;;;;;;;;;10.40;99.90;;;;;;5089548;28;19986;-71
2021/05/23 00:33:10;;;;;;;;;;;10.40;99.90;;;;;;5087613;28;19908;-71
2021/05/23 00:35:35;;;;;;;;;;;10.40;99.90;;;;;;5092729;28;19909;-70
2021/05/23 00:38:01;;;;;;;;;;;10.30;99.90;;;;;;5094553;28;19908;-69
2021/05/23 00:40:27;;;;;;;;;;;10.40;99.90;;;;;;5094740;28;19923;-71
2021/05/23 00:42:52;;;;;;;;;;;10.30;99.90;;;;;;5094742;28;20029;-71
2021/05/23 00:45:19;;;;;;;;;;;10.30;99.90;;;;;;5094659;28;19909;-70
2021/05/23 00:47:45;;;;;;;;;;;10.20;99.90;;;;;;5092233;28;19912;-71
2021/05/23 00:50:11;;;;;;;;;;;10.20;99.90;;;;;;5093349;28;19908;-71
2021/05/23 00:52:38;;;;;;;;;;;10.20;99.90;;;;;;5093273;28;19920;-71
2021/05/23 00:55:04;;;;;;;;;;;10.20;99.90;;;;;;5094678;28;19914;-71
2021/05/23 00:57:29;;;;;;;;;;;10.20;99.90;;;;;;5093572;28;19912;-69
2021/05/23 00:59:55;;;;;;;;;;;10.20;99.90;;;;;;5094536;28;19908;-71
2021/05/23 01:02:39;;;;;;;;;;;10.20;99.90;;;;;;5090498;28;20330;-71
2021/05/23 01:05:05;;;;;;;;;;;10.20;99.90;;;;;;5094203;28;19912;-71
2021/05/23 01:07:30;;;;;;;;;;;10.20;99.90;;;;;;5094023;28;20284;-71
2021/05/23 01:09:58;;;;;;;;;;;10.20;99.90;;;;;;5094150;28;19908;-71
2021/05/23 01:12:24;;;;;;;;;;;10.20;99.90;;;;;;5094244;28;19920;-71
2021/05/23 01:14:50;;;;;;;;;;;10.10;99.90;;;;;;5092947;28;19907;-71
2021/05/23 01:17:17;;;;;;;;;;;10.20;99.90;;;;;;5093137;28;19911;-69
2021/05/23 01:20:01;;;;;;;;;;;10.20;99.90;;;;;;5094056;28;19915;-71
2021/05/23 01:22:35;;;;;;;;;;;10.20;99.90;;;;;;5093716;28;19912;-70
2021/05/23 01:25:05;;;;;;;;;;;10.10;99.90;;;;;;5093067;28;19915;-71
2021/05/23 01:27:44;;;;;;;;;;;10.00;99.90;;;;;;5092040;28;19914;-71
2021/05/23 01:30:11;;;;;;;;;;;10.00;99.90;;;;;;5094305;28;20315;-71
2021/05/23 01:32:36;;;;;;;;;;;10.00;99.90;;;;;;5089904;28;19908;-69
2021/05/23 01:35:07;;;;;;;;;;;10.00;99.90;;;;;;5093509;28;19961;-71
2021/05/23 01:37:32;;;;;;;;;;;10.00;99.90;;;;;;5092899;28;19908;-70
2021/05/23 01:39:58;;;;;;;;;;;10.00;99.90;;;;;;5093672;28;20334;-71
2021/05/23 01:42:23;;;;;;;;;;;10.00;99.90;;;;;;5092120;28;19942;-71
2021/05/23 01:44:49;;;;;;;;;;;10.00;99.90;;;;;;5093482;28;19908;-71
2021/05/23 01:47:15;;;;;;;;;;;10.00;99.90;;;;;;5091712;28;20276;-69
2021/05/23 01:49:40;;;;;;;;;;;10.00;99.90;;;;;;5093377;28;19960;-71
2021/05/23 01:52:06;;;;;;;;;;;10.00;99.90;;;;;;5090126;28;19915;-71
2021/05/23 01:54:31;;;;;;;;;;;10.00;99.90;;;;;;5093286;28;20396;-71
2021/05/23 01:56:57;;;;;;;;;;;10.00;99.90;;;;;;5092527;28;19919;-70
2021/05/23 01:59:22;;;;;;;;;;;10.00;99.90;;;;;;5093289;28;20007;-71
2021/05/23 02:01:48;;;;;;;;;;;10.00;99.90;;;;;;5089773;28;19912;-71
2021/05/23 02:04:13;;;;;;;;;;;10.00;99.90;;;;;;5092663;28;19912;-71
2021/05/23 02:06:39;;;;;;;;;;;10.00;99.90;;;;;;5092241;28;20280;-71
2021/05/23 02:09:04;;;;;;;;;;;10.00;99.90;;;;;;5092976;28;19908;-71
2021/05/23 02:11:30;;;;;;;;;;;9.90;99.90;;;;;;5091755;28;19908;-71
2021/05/23 02:13:55;;;;;;;;;;;10.00;99.90;;;;;;5092972;28;20000;-70
2021/05/23 02:16:21;;;;;;;;;;;10.00;99.90;;;;;;5092170;28;19908;-71
2021/05/23 02:18:46;;;;;;;;;;;10.00;99.90;;;;;;5092294;28;20388;-71
2021/05/23 02:21:12;;;;;;;;;;;10.00;99.90;;;;;;5092821;28;19915;-71
2021/05/23 02:23:47;;;;;;;;;;;9.90;99.90;;;;;;5092839;28;19912;-71
2021/05/23 02:26:12;;;;;;;;;;;9.90;99.90;;;;;;5092100;28;20365;-71
2021/05/23 02:28:37;;;;;;;;;;;9.80;99.90;;;;;;5091319;28;19908;-70
2021/05/23 02:31:03;;;;;;;;;;;9.70;99.90;;;;;;5090803;28;19998;-72
2021/05/23 02:33:28;;;;;;;;;;;9.60;99.90;;;;;;5090571;28;19919;-71
2021/05/23 02:35:56;;;;;;;;;;;9.40;99.90;;;;;;5090581;28;19912;-71
2021/05/23 02:38:21;;;;;;;;;;;9.10;99.90;;;;;;5092880;28;20284;-72
2021/05/23 02:40:48;;;;;;;;;;;8.80;99.90;;;;;;5092502;28;19916;-72
2021/05/23 02:43:14;;;;;;;;;;;8.70;99.90;;;;;;5092457;28;20386;-72
2021/05/23 02:45:41;;;;;;;;;;;8.50;99.90;;;;;;5090049;28;20299;-71
2021/05/23 02:48:07;;;;;;;;;;;8.40;99.90;;;;;;5092000;28;19961;-71
2021/05/23 02:50:34;;;;;;;;;;;8.40;99.90;;;;;;5092217;28;19908;-71
2021/05/23 02:53:00;;;;;;;;;;;8.40;99.90;;;;;;5090948;28;19915;-70
2021/05/23 02:55:26;;;;;;;;;;;8.40;99.90;;;;;;5092016;28;19916;-72
2021/05/23 02:57:52;;;;;;;;;;;8.40;99.90;;;;;;5090849;28;19996;-72
2021/05/23 03:00:19;;;;;;;;;;;8.40;99.90;;;;;;5091782;28;20323;-72
2021/05/23 03:02:45;;;;;;;;;;;8.40;99.90;;;;;;5087747;28;19912;-71
2021/05/23 03:05:11;;;;;;;;;;;8.40;99.90;;;;;;5091507;28;19961;-71
2021/05/23 03:07:39;;;;;;;;;;;8.40;99.90;;;;;;5090729;28;19951;-72
2021/05/23 03:10:06;;;;;;;;;;;8.40;99.90;;;;;;5090425;28;19912;-72
2021/05/23 03:12:31;;;;;;;;;;;8.40;99.90;;;;;;5091363;28;19908;-72
2021/05/23 03:14:57;;;;;;;;;;;8.50;99.90;;;;;;5091212;28;19908;-72
2021/05/23 03:17:22;;;;;;;;;;;8.50;99.90;;;;;;5090307;28;19960;-72
2021/05/23 03:19:48;;;;;;;;;;;8.50;99.90;;;;;;5091358;28;20270;-72
2021/05/23 03:22:13;;;;;;;;;;;8.50;99.90;;;;;;5091747;28;20053;-71
2021/05/23 03:24:39;;;;;;;;;;;8.50;99.90;;;;;;5091620;28;19909;-70
2021/05/23 03:27:04;;;;;;;;;;;8.50;99.90;;;;;;5091331;28;19908;-72
2021/05/23 03:29:30;;;;;;;;;;;8.50;99.90;;;;;;5091349;28;19923;-72
2021/05/23 03:31:55;;;;;;;;;;;8.50;99.90;;;;;;5088001;28;19915;-71
2021/05/23 03:34:21;;;;;;;;;;;8.50;99.90;;;;;;5091245;28;19908;-72
2021/05/23 03:36:46;;;;;;;;;;;8.50;99.90;;;;;;5090672;28;19934;-72
2021/05/23 03:39:12;;;;;;;;;;;8.60;99.90;;;;;;5091519;28;19912;-71
2021/05/23 03:41:37;;;;;;;;;;;8.60;99.90;;;;;;5091261;28;20377;-71
2021/05/23 03:44:03;;;;;;;;;;;8.60;99.90;;;;;;5091206;28;19916;-72
2021/05/23 03:46:28;;;;;;;;;;;8.60;99.90;;;;;;5090570;28;20282;-72
2021/05/23 03:48:54;;;;;;;;;;;8.60;99.90;;;;;;5089767;28;19954;-71
2021/05/23 03:51:19;;;;;;;;;;;8.70;99.90;;;;;;5090015;28;20002;-70
2021/05/23 03:53:45;;;;;;;;;;;8.60;99.90;;;;;;5091099;28;20323;-71
2021/05/23 03:56:10;;;;;;;;;;;8.60;99.90;;;;;;5090505;28;19915;-72
2021/05/23 03:58:36;;;;;;;;;;;8.60;99.90;;;;;;5090943;28;19931;-72
2021/05/23 04:01:02;;;;;;;;;;;8.60;99.90;;;;;;5089644;28;20293;-70
2021/05/23 04:03:28;;;;;;;;;;;8.50;99.90;;;;;;5087599;28;19911;-72
2021/05/23 04:05:54;;;;;;;;;;;8.60;99.90;;;;;;5090332;28;19916;-71
2021/05/23 04:08:20;;;;;;;;;;;8.50;99.90;;;;;;5091173;28;19915;-72
2021/05/23 04:10:56;;;;;;;;;;;8.50;99.90;;;;;;5094011;28;20305;-72
2021/05/23 04:13:23;;;;;;;;;;;8.50;99.90;;;;;;5095259;28;19981;-72
2021/05/23 04:15:48;;;;;;;;;;;8.50;99.90;;;;;;5094254;28;20396;-71
2021/05/23 04:18:14;;;;;;;;;;;8.50;99.90;;;;;;5094987;28;19912;-71
2021/05/23 04:20:39;;;;;;;;;;;8.50;99.90;;;;;;5095109;28;20316;-72
2021/05/23 04:23:05;;;;;;;;;;;8.50;99.90;;;;;;5095141;28;19912;-72
2021/05/23 04:25:31;;;;;;;;;;;8.60;99.90;;;;;;5094929;28;20006;-70
2021/05/23 04:27:56;;;;;;;;;;;8.60;99.90;;;;;;5094215;28;19908;-70
2021/05/23 04:30:24;;;;;;;;;;;8.60;99.90;;;;;;5095106;28;19908;-72
2021/05/23 04:32:50;;;;;;;;;;;8.60;99.90;;;;;;5091206;28;19969;-72
2021/05/23 04:35:15;;;;;;;;;;;8.60;99.90;;;;;;5093583;28;20353;-72
2021/05/23 04:37:42;;;;;;;;;;;8.70;99.90;;;;;;5093959;28;19908;-72
2021/05/23 04:40:07;;;;;;;;;;;8.70;99.90;;;;;;5094671;28;19916;-71
2021/05/23 04:42:33;;;;;;;;;;;8.70;99.90;;;;;;5093245;28;19961;-72
2021/05/23 04:44:59;;;;;;;;;;;8.70;99.90;;;;;;5094513;28;19911;-70
2021/05/23 04:47:24;;;;;;;;;;;8.80;99.90;;;;;;5093730;28;19908;-72
2021/05/23 04:49:50;;;;;;;;;;;8.80;99.90;;;;;;5094589;28;19958;-72
2021/05/23 04:52:15;;;;;;;;;;;8.90;99.90;;;;;;5094538;28;19912;-72
2021/05/23 04:54:41;;;;;;;;;;;8.80;99.90;;;;;;5094342;28;19908;-71
2021/05/23 04:57:06;;;;;;;;;;;8.80;99.90;;;;;;5093693;28;20057;-72
2021/05/23 04:59:33;;;;;;;;;;;8.90;99.90;;;;;;5094326;28;19999;-71
2021/05/23 05:01:58;;;;;;;;;;;8.90;99.90;;;;;;5090724;28;19915;-72
2021/05/23 05:04:24;;;;;;;;;;;9.00;99.90;;;;;;5093667;28;19919;-71
2021/05/23 05:06:49;;;;;;;;;;;9.00;99.90;;;;;;5093794;28;19908;-71
2021/05/23 05:09:15;;;;;;;;;;;9.00;99.90;;;;;;5094232;28;20003;-70
2021/05/23 05:11:40;;;;;;;;;;;9.00;99.90;;;;;;5092770;28;19912;-71
2021/05/23 05:14:08;;;;;;;;;;;9.00;99.90;;;;;;5093984;28;19947;-71
2021/05/23 05:16:34;;;;;;;;;;;9.10;99.90;;;;;;5093302;28;19925;-71
2021/05/23 05:18:59;;;;;;;;;;;9.20;99.90;;;;;;5093720;28;19908;-69
2021/05/23 05:21:25;;;;;;;;;;;9.20;99.90;;;;;;5092907;28;19908;-71
2021/05/23 05:23:50;;;;;;;;;;;9.30;99.90;;;;;;5093843;28;19915;-72
2021/05/23 05:26:16;;;;;;;;;;;9.40;99.90;;;;;;5092922;28;19991;-70
2021/05/23 05:28:41;;;;;;;;;;;9.40;99.90;;;;;;5093637;28;19908;-72
2021/05/23 05:31:07;;;;;;;;;;;9.40;99.90;;;;;;5090460;28;19915;-72
2021/05/23 05:33:32;;;;;;;;;;;9.40;99.90;;;;;;5091080;28;20373;-72
2021/05/23 05:35:58;;;;;;;;;;;9.40;99.90;;;;;;5092999;28;19912;-71
2021/05/23 05:38:23;;;;;;;;;;;9.40;99.90;;;;;;5093507;28;19918;-72
2021/05/23 05:40:49;;;;;;;;;;;9.40;99.90;;;;;;5093440;28;20011;-72
2021/05/23 05:43:14;;;;;;;;;;;9.30;99.90;;;;;;5093611;28;20296;-71
2021/05/23 05:45:40;;;;;;;;;;;9.30;99.90;;;;;;5092729;28;20041;-71
2021/05/23 05:48:05;;;;;;;;;;;9.20;99.90;;;;;;5092927;28;19955;-72
2021/05/23 05:50:31;;;;;;;;;;;9.20;99.90;;;;;;5093496;28;19953;-71
2021/05/23 05:52:56;;;;;;;;;;;9.30;99.90;;;;;;5093388;28;20280;-71
2021/05/23 05:55:22;;;;;;;;;;;9.30;99.90;;;;;;5091891;28;19908;-72
2021/05/23 05:57:47;;;;;;;;;;;9.40;99.90;;;;;;5092593;28;20003;-72
2021/05/23 06:00:13;;;;;;;;;;;9.50;99.90;;;;;;5093317;28;19954;-72
2021/05/23 06:02:39;;;;;;;;;;;9.60;99.90;;;;;;5089361;28;19913;-70
2021/05/23 06:05:05;;;;;;;;;;;9.70;99.90;;;;;;5092986;28;20266;-70
2021/05/23 06:07:30;;;;;;;;;;;9.70;99.90;;;;;;5092405;28;20003;-71
2021/05/23 06:09:56;;;;;;;;;;;9.70;99.90;;;;;;5092901;28;19908;-72
2021/05/23 06:12:21;;;;;;;;;;;9.70;99.90;;;;;;5093476;28;19908;-72
2021/05/23 06:14:47;;;;;;;;;;;9.70;99.90;;;;;;5092881;28;19933;-71
2021/05/23 06:17:12;;;;;;;;;;;9.70;99.90;;;;;;5092159;28;19917;-72
2021/05/23 06:19:38;;;;;;;;;;;9.70;99.90;;;;;;5092537;28;20383;-72
2021/05/23 06:22:03;;;;;;;;;;;9.80;99.90;;;;;;5091515;28;19923;-71
2021/05/23 06:24:29;;;;;;;;;;;9.90;99.90;;;;;;5092633;28;19915;-70
2021/05/23 06:26:54;;;;;;;;;;;10.00;99.90;;;;;;5091855;28;19908;-72
2021/05/23 06:29:20;;;;;;;;;;;10.10;99.90;;;;;;5092770;28;19912;-72
2021/05/23 06:31:45;;;;;;;;;;;10.10;99.90;;;;;;5089147;28;20277;-72
2021/05/23 06:34:11;;;;;;;;;;;10.20;99.90;;;;;;5091944;28;20418;-72
2021/05/23 06:36:37;;;;;;;;;;;10.20;99.90;;;;;;5092315;28;19908;-72
2021/05/23 06:39:06;;;;;;;;;;;10.20;99.90;;;;;;5092347;28;19950;-72
2021/05/23 06:41:32;;;;;;;;;;;10.20;99.90;;;;;;5092271;28;19920;-71
2021/05/23 06:43:57;;;;;;;;;;;10.10;99.90;;;;;;5092223;28;19952;-72
2021/05/23 06:46:23;;;;;;;;;;;10.10;99.90;;;;;;5090341;28;20099;-72
2021/05/23 06:48:48;;;;;;;;;;;10.00;99.90;;;;;;5092480;28;19915;-72
2021/05/23 06:51:14;;;;;;;;;;;10.50;99.90;;;;;;5092299;28;19965;-71
2021/05/23 06:53:40;;;;;;;;;;;11.40;99.90;;;;;;5090810;28;19908;-72
2021/05/23 06:56:06;;;;;;;;;;;12.40;99.90;;;;;;5091338;28;19931;-71
2021/05/23 06:58:31;;;;;;;;;;;13.20;99.90;;;;;;5090772;28;20369;-70
2021/05/23 07:00:57;;;;;;;;;;;13.90;99.90;;;;;;5091270;28;19919;-72
2021/05/23 07:03:22;;;;;;;;;;;14.80;99.90;;;;;;5089093;28;20007;-72
2021/05/23 07:05:48;;;;;;;;;;;15.30;99.90;;;;;;5091291;28;20272;-72
2021/05/23 07:08:14;;;;;;;;;;;15.40;99.90;;;;;;5091775;28;19912;-72
2021/05/23 07:10:40;;;;;;;;;;;15.20;99.90;;;;;;5091984;28;19908;-71
2021/05/23 07:13:05;;;;;;;;;;;14.90;99.90;;;;;;5091758;28;20283;-72
2021/05/23 07:15:31;;;;;;;;;;;14.40;99.90;;;;;;5091812;28;19912;-69
2021/05/23 07:17:58;;;;;;;;;;;14.30;99.90;;;;;;5090906;28;19908;-72
2021/05/23 07:20:23;;;;;;;;;;;14.80;99.90;;;;;;5091880;28;19908;-72
2021/05/23 07:22:49;;;;;;;;;;;15.60;99.90;;;;;;5083318;28;20262;-69
2021/05/23 07:25:15;;;;;;;;;;;15.90;99.90;;;;;;5068894;28;19912;-69
2021/05/23 07:27:40;;;;;;;;;;;15.60;99.90;;;;;;5068857;28;20437;-69
2021/05/23 07:30:06;;;;;;;;;;;15.00;99.90;;;;;;5070087;28;20406;-70
2021/05/23 07:32:32;;;;;;;;;;;14.50;99.90;;;;;;5081768;28;20010;-70
2021/05/23 07:34:57;;;;;;;;;;;13.80;99.90;;;;;;5091128;28;19953;-71
2021/05/23 07:37:23;;;;;;;;;;;13.40;99.90;;;;;;5090390;28;19908;-70
2021/05/23 07:39:48;;;;;;;;;;;13.00;99.90;;;;;;5091156;28;19964;-71
2021/05/23 07:42:14;;;;;;;;;;;12.70;99.90;;;;;;5072476;28;19920;-71
2021/05/23 07:44:39;;;;;;;;;;;12.40;99.90;;;;;;5070642;28;19931;-71
2021/05/23 07:47:05;;;;;;;;;;;12.10;99.90;;;;;;5070316;28;19909;-71
2021/05/23 07:49:31;;;;;;;;;;;12.20;99.90;;;;;;5070731;28;19908;-71
2021/05/23 07:51:56;;;;;;;;;;;12.40;99.90;;;;;;5070874;28;20350;-71
2021/05/23 07:54:22;;;;;;;;;;;12.80;99.90;;;;;;5071167;28;19962;-71
2021/05/23 07:56:47;;;;;;;;;;;12.80;99.90;;;;;;5075293;28;19920;-70
2021/05/23 07:59:13;;;;;;;;;;;12.80;99.90;;;;;;5090206;28;19915;-74
2021/05/23 08:01:38;;;;;;;;;;;12.80;99.90;;;;;;5085127;28;19908;-71
2021/05/23 08:04:04;;;;;;;;;;;12.90;99.90;;;;;;5073039;28;19952;-71
2021/05/23 08:06:31;;;;;;;;;;;13.60;99.90;;;;;;5069177;28;19982;-69
2021/05/23 08:08:56;;;;;;;;;;;14.00;99.90;;;;;;5070053;28;19908;-71
2021/05/23 08:11:22;;;;;;;;;;;14.10;99.90;;;;;;5070125;28;19916;-71
2021/05/23 08:13:47;;;;;;;;;;;13.80;99.90;;;;;;5069870;28;19961;-68
2021/05/23 08:16:13;;;;;;;;;;;13.40;99.90;;;;;;5069264;28;19912;-71
2021/05/23 08:18:39;;;;;;;;;;;13.10;99.90;;;;;;5069736;28;19909;-71
2021/05/23 08:21:04;;;;;;;;;;;12.90;99.90;;;;;;5069831;28;19912;-71
2021/05/23 08:23:31;;;;;;;;;;;12.80;99.90;;;;;;5069657;28;19963;-71
2021/05/23 08:25:57;;;;;;;;;;;12.70;99.90;;;;;;5069291;28;19908;-71
2021/05/23 08:28:22;;;;;;;;;;;13.10;99.90;;;;;;5083218;28;20021;-71
2021/05/23 08:30:48;;;;;;;;;;;13.80;99.90;;;;;;5089893;28;19908;-71
2021/05/23 08:33:13;;;;;;;;;;;14.60;99.90;;;;;;5073304;28;19958;-71
2021/05/23 08:35:40;;;;;;;;;;;15.30;99.90;;;;;;5071153;28;19908;-69
2021/05/23 08:38:06;;;;;;;;;;;15.70;99.90;;;;;;5068592;28;19951;-71
2021/05/23 08:40:32;;;;;;;;;;;16.30;99.90;;;;;;5069569;28;19964;-72
2021/05/23 08:42:57;;;;;;;;;;;16.40;99.90;;;;;;5069699;28;19952;-72
2021/05/23 08:45:23;;;;;;;;;;;16.20;99.90;;;;;;5069850;28;20412;-71
2021/05/23 08:47:50;;;;;;;;;;;15.60;99.70;;;;;;5069600;28;19940;-71
2021/05/23 08:50:17;;;;;;;;;;;15.20;99.90;;;;;;5070196;28;19991;-71
2021/05/23 08:52:43;;;;;;;;;;;15.10;99.90;;;;;;5070459;28;19915;-70
2021/05/23 08:55:08;;;;;;;;;;;15.30;99.90;;;;;;5070214;28;19912;-72
2021/05/23 08:57:34;;;;;;;;;;;15.70;99.90;;;;;;5073425;28;19919;-71
2021/05/23 09:00:00;;;;;;;;;;;15.90;99.90;;;;;;5074095;28;19908;-72
2021/05/23 09:02:26;;;;;;;;;;;16.20;99.70;;;;;;5083778;28;19913;-71
2021/05/23 09:04:52;;;;;;;;;;;16.50;98.40;;;;;;5092686;28;19908;-71
2021/05/23 09:07:18;;;;;;;;;;;16.40;98.60;;;;;;5093569;28;20327;-72
2021/05/23 09:09:48;;;;;;;;;;;16.00;98.10;;;;;;5092912;28;20042;-71
2021/05/23 09:12:14;;;;;;;;;;;15.80;99.10;;;;;;5094354;28;19912;-72
2021/05/23 09:14:44;;;;;;;;;;;15.50;99.60;;;;;;5073437;28;19935;-71
2021/05/23 09:17:26;;;;;;;;;;;15.10;99.90;;;;;;5073011;28;20393;-71
2021/05/23 09:19:52;;;;;;;;;;;15.00;99.90;;;;;;5073511;28;20053;-71
2021/05/23 09:22:19;;;;;;;;;;;14.80;99.90;;;;;;5073567;28;19923;-72
2021/05/23 09:24:49;;;;;;;;;;;14.60;99.90;;;;;;5073614;28;19908;-71
2021/05/23 09:27:15;;;;;;;;;;;13.90;99.90;;;;;;5072835;28;19912;-71
2021/05/23 09:29:40;;;;;;;;;;;13.20;99.90;;;;;;5073577;28;20003;-71
2021/05/23 09:32:13;;;;;;;;;;;12.60;99.90;;;;;;5080310;28;19958;-71
2021/05/23 09:34:39;;;;;;;;;;;12.40;99.90;;;;;;5093261;28;20381;-71
2021/05/23 09:37:10;;;;;;;;;;;12.30;99.90;;;;;;5092793;28;19915;-71
2021/05/23 09:39:37;;;;;;;;;;;12.50;99.90;;;;;;5091891;28;19962;-71
2021/05/23 09:42:04;;;;;;;;;;;12.70;99.90;;;;;;5092328;28;20380;-71
2021/05/23 09:44:29;;;;;;;;;;;13.00;99.90;;;;;;5091976;28;19919;-72
2021/05/23 09:47:04;;;;;;;;;;;13.70;99.90;;;;;;5070303;28;19909;-72
2021/05/23 09:49:53;;;;;;;;;;;14.60;99.90;;;;;;5071652;28;20378;-72
2021/05/23 09:52:30;;;;;;;;;;;15.30;99.90;;;;;;5073039;28;19913;-72
2021/05/23 09:54:56;;;;;;;;;;;16.10;99.90;;;;;;5072981;28;19915;-72
2021/05/23 09:57:23;;;;;;;;;;;16.70;99.40;;;;;;5072413;28;19909;-72
2021/05/23 10:00:18;;;;;;;;;;;17.20;99.20;;;;;;5072952;28;20333;-71
2021/05/23 10:02:56;;;;;;;;;;;17.50;97.00;;;;;;5071306;28;19966;-71
2021/05/23 10:05:22;;;;;;;;;;;17.50;97.40;;;;;;5092544;28;19926;-72
2021/05/23 10:07:48;;;;;;;;;;;17.30;95.80;;;;;;5091804;28;19908;-72
2021/05/23 10:10:14;;;;;;;;;;;17.00;96.90;;;;;;5093064;28;19955;-71
2021/05/23 10:12:40;;;;;;;;;;;16.60;96.90;;;;;;5093128;28;19909;-71
2021/05/23 10:15:06;;;;;;;;;;;16.30;98.30;;;;;;5093003;28;20365;-71
2021/05/23 10:17:34;;;;;;;;;;;16.10;99.00;;;;;;5092315;28;19908;-71
2021/05/23 10:20:01;;;;;;;;;;;16.50;99.40;;;;;;5092507;28;19999;-71
2021/05/23 10:22:27;;;;;;;;;;;17.00;98.30;;;;;;5092612;28;20003;-71
2021/05/23 10:24:58;;;;;;;;;;;17.70;97.40;;;;;;5092782;28;20398;-70
2021/05/23 10:27:25;;;;;;;;;;;18.40;97.90;;;;;;5091940;28;19908;-71
2021/05/23 10:29:52;;;;;;;;;;;19.00;95.20;;;;;;5092772;28;19908;-71
2021/05/23 10:32:21;;;;;;;;;;;19.30;94.30;;;;;;5089044;28;20400;-71
2021/05/23 10:34:48;;;;;;;;;;;19.50;93.80;;;;;;5092168;28;19914;-71
2021/05/23 10:37:30;;;;;;;;;;;19.80;93.30;;;;;;5091718;28;20361;-71
2021/05/23 10:39:57;;;;;;;;;;;19.80;92.40;;;;;;5091132;28;19923;-71
2021/05/23 10:42:24;;;;;;;;;;;19.20;91.60;;;;;;5092464;28;19957;-71
2021/05/23 10:44:51;;;;;;;;;;;18.40;91.40;;;;;;5092226;28;19915;-71
2021/05/23 10:47:20;;;;;;;;;;;17.60;92.60;;;;;;5092061;28;19912;-71
2021/05/23 10:49:59;;;;;;;;;;;17.00;94.40;;;;;;5092254;28;19908;-70
2021/05/23 10:52:29;;;;;;;;;;;16.40;97.20;;;;;;5092193;28;19908;-72
2021/05/23 10:55:10;;;;;;;;;;;15.70;99.30;;;;;;5092135;28;19986;-70
2021/05/23 10:57:44;;;;;;;;;;;15.30;99.90;;;;;;5091389;28;20365;-73
2021/05/23 11:00:14;;;;;;;;;;;15.40;99.90;;;;;;5090923;28;19908;-71
2021/05/23 11:02:40;;;;;;;;;;;15.70;99.90;;;;;;5091824;28;19911;-70
2021/05/23 11:05:15;;;;;;;;;;;16.10;99.40;;;;;;5111999;28;19981;-71
2021/05/23 11:07:52;;;;;;;;;;;16.30;98.30;;;;;;5111360;28;20314;-70
2021/05/23 11:10:19;;;;;;;;;;;16.50;98.20;;;;;;5112431;28;19908;-70
2021/05/23 11:12:51;;;;;;;;;;;16.80;97.40;;;;;;5112191;28;19919;-70
2021/05/23 11:15:17;;;;;;;;;;;16.80;96.20;;;;;;5112102;28;19915;-70
2021/05/23 11:17:43;;;;;;;;;;;16.60;95.90;;;;;;5111387;28;19908;-70
2021/05/23 11:20:18;;;;;;;;;;;16.20;94.50;;;;;;5111077;28;20348;-70
2021/05/23 11:22:46;;;;;;;;;;;16.10;96.60;;;;;;5112039;28;20430;-72
2021/05/23 11:25:12;;;;;;;;;;;16.10;96.00;;;;;;5112260;28;19922;-70
2021/05/23 11:27:38;;;;;;;;;;;16.20;96.00;;;;;;5111348;28;20421;-70
2021/05/23 11:30:11;;;;;;;;;;;16.60;97.10;;;;;;5112294;28;19912;-70
2021/05/23 11:32:37;;;;;;;;;;;17.20;96.20;;;;;;5093789;28;20331;-72
2021/05/23 11:35:02;;;;;;;;;;;17.90;96.30;;;;;;5091241;28;19913;-71
2021/05/23 11:37:35;;;;;;;;;;;18.60;94.30;;;;;;5089642;28;20358;-74
2021/05/23 11:40:04;;;;;;;;;;;18.80;93.50;;;;;;5091691;28;19966;-70
2021/05/23 11:42:34;;;;;;;;;;;19.10;92.40;;;;;;5091655;28;19955;-70
2021/05/23 11:44:59;;;;;;;;;;;19.00;92.00;;;;;;5091534;28;19930;-70
2021/05/23 11:47:25;;;;;;;;;;;19.00;92.40;;;;;;5090645;28;20355;-71
2021/05/23 11:49:50;;;;;;;;;;;18.90;93.80;;;;;;5091314;28;19912;-73
2021/05/23 11:52:16;;;;;;;;;;;18.90;92.70;;;;;;5091553;28;19908;-70
2021/05/23 11:54:42;;;;;;;;;;;19.10;93.10;;;;;;5091566;28;19987;-70
2021/05/23 11:57:08;;;;;;;;;;;19.20;93.90;;;;;;5090926;28;19908;-71
2021/05/23 11:59:33;;;;;;;;;;;19.30;91.00;;;;;;5091362;28;20411;-70
2021/05/23 12:02:00;;;;;;;;;;;19.30;91.10;;;;;;5087873;28;19913;-71
2021/05/23 12:04:25;;;;;;;;;;;19.30;89.60;;;;;;5090809;28;19908;-70
2021/05/23 12:06:52;;;;;;;;;;;19.50;90.10;;;;;;5090670;28;20373;-72
2021/05/23 12:09:20;;;;;;;;;;;19.60;88.90;;;;;;5091190;28;19908;-71
2021/05/23 12:11:53;;;;;;;;;;;19.70;86.50;;;;;;5090132;28;19908;-70
2021/05/23 12:14:20;;;;;;;;;;;19.80;86.00;;;;;;5091226;28;19909;-70
2021/05/23 12:16:47;;;;;;;;;;;19.70;85.80;;;;;;5090105;28;19916;-72
2021/05/23 12:19:12;;;;;;;;;;;18.90;86.80;;;;;;5090800;28;19930;-70
2021/05/23 12:21:38;;;;;;;;;;;18.30;89.30;;;;;;5091343;28;19957;-70
2021/05/23 12:24:04;;;;;;;;;;;17.70;90.60;;;;;;5090633;28;20324;-71
2021/05/23 12:26:30;;;;;;;;;;;17.10;93.50;;;;;;5090248;28;20007;-70
2021/05/23 12:28:55;;;;;;;;;;;16.90;91.30;;;;;;5091061;28;20311;-72
2021/05/23 12:31:22;;;;;;;;;;;16.80;90.30;;;;;;5089744;28;20015;-70
2021/05/23 12:33:48;;;;;;;;;;;17.00;91.70;;;;;;5095039;28;20497;-70
2021/05/23 12:36:14;;;;;;;;;;;17.70;90.80;;;;;;5094461;28;19915;-71
2021/05/23 12:38:40;;;;;;;;;;;18.30;90.50;;;;;;5095089;28;19912;-70
2021/05/23 12:41:07;;;;;;;;;;;18.70;87.20;;;;;;5095082;28;19916;-74
2021/05/23 12:43:34;;;;;;;;;;;18.90;86.90;;;;;;5094604;28;19965;-71
2021/05/23 12:46:00;;;;;;;;;;;18.60;87.90;;;;;;5094235;28;20445;-74
2021/05/23 12:48:29;;;;;;;;;;;18.00;87.50;;;;;;5093503;28;20010;-70
2021/05/23 12:50:55;;;;;;;;;;;17.50;90.40;;;;;;5094662;28;19956;-70
2021/05/23 12:53:28;;;;;;;;;;;17.20;89.80;;;;;;5094701;28;20011;-72
2021/05/23 12:55:54;;;;;;;;;;;17.10;88.90;;;;;;5094032;28;20656;-71
2021/05/23 12:58:20;;;;;;;;;;;17.10;90.10;;;;;;5094511;28;20281;-72
2021/05/23 13:00:47;;;;;;;;;;;17.30;90.30;;;;;;5094812;28;19914;-72
2021/05/23 13:03:13;;;;;;;;;;;17.60;90.70;;;;;;5091024;28;20010;-72
2021/05/23 13:05:51;;;;;;;;;;;18.00;91.10;;;;;;5093490;28;19915;-74
2021/05/23 13:08:16;;;;;;;;;;;18.60;88.10;;;;;;5094521;28;19947;-73
2021/05/23 13:10:44;;;;;;;;;;;19.10;90.90;;;;;;5094377;28;20329;-71
2021/05/23 13:13:09;;;;;;;;;;;19.50;86.90;;;;;;5094474;28;20357;-70
2021/05/23 13:15:35;;;;;;;;;;;19.70;87.50;;;;;;5093783;28;19923;-71
2021/05/23 13:18:00;;;;;;;;;;;19.40;85.30;;;;;;5093898;28;19923;-72
2021/05/23 13:20:33;;;;;;;;;;;19.40;86.30;;;;;;5094052;28;19908;-70
2021/05/23 13:22:59;;;;;;;;;;;19.10;88.30;;;;;;5092913;28;19912;-71
2021/05/23 13:25:25;;;;;;;;;;;18.70;87.80;;;;;;5093844;28;20407;-74
2021/05/23 13:27:52;;;;;;;;;;;18.50;88.70;;;;;;5093269;28;19908;-71
2021/05/23 13:30:18;;;;;;;;;;;18.60;87.60;;;;;;5094475;28;19912;-71
2021/05/23 13:32:44;;;;;;;;;;;19.10;88.60;;;;;;5090424;28;19965;-70
2021/05/23 13:35:11;;;;;;;;;;;19.30;80.30;;;;;;5093572;28;20014;-71
2021/05/23 13:37:36;;;;;;;;;;;19.00;83.00;;;;;;5093225;28;19912;-71
2021/05/23 13:40:02;;;;;;;;;;;18.60;81.20;;;;;;5093769;28;20073;-70
2021/05/23 13:42:28;;;;;;;;;;;18.20;83.90;;;;;;5092767;28;19923;-70
2021/05/23 13:44:53;;;;;;;;;;;18.10;86.60;;;;;;5093794;28;19912;-70
2021/05/23 13:47:20;;;;;;;;;;;18.20;84.60;;;;;;5093099;28;20420;-70
2021/05/23 13:49:45;;;;;;;;;;;18.00;84.10;;;;;;5093463;28;19931;-73
2021/05/23 13:52:12;;;;;;;;;;;18.00;88.20;;;;;;5093871;28;19912;-70
2021/05/23 13:54:38;;;;;;;;;;;18.20;85.70;;;;;;5093626;28;19912;-70
2021/05/23 13:57:03;;;;;;;;;;;18.30;86.50;;;;;;5092911;28;19912;-73
2021/05/23 13:59:29;;;;;;;;;;;18.70;88.30;;;;;;5093693;28;19915;-70
2021/05/23 14:01:55;;;;;;;;;;;19.10;83.80;;;;;;5093436;28;20288;-70
2021/05/23 14:04:21;;;;;;;;;;;19.50;82.20;;;;;;5093054;28;19912;-70
2021/05/23 14:06:47;;;;;;;;;;;19.80;78.30;;;;;;5092196;28;19908;-70
2021/05/23 14:09:13;;;;;;;;;;;20.10;82.40;;;;;;5087438;28;19908;-70
2021/05/23 14:11:39;;;;;;;;;;;20.50;82.90;;;;;;5092239;28;19909;-70
2021/05/23 14:14:04;;;;;;;;;;;20.80;78.60;;;;;;5093324;28;19920;-70
2021/05/23 14:16:30;;;;;;;;;;;21.10;79.20;;;;;;5092361;28;20373;-73
2021/05/23 14:18:55;;;;;;;;;;;21.00;78.30;;;;;;5093289;28;19912;-70